De Soto, Wisconsin
Current Conditions -  °F | °C
As of 2:35 PM on Friday 21 Nov 2014 (Local Time) from KY51 Reporting Station
Clear Clear  
Wind Chill: 20°   Ceiling: Unl
Heat Index: 29°   Visibility: 10mi
Dew Point:   Wind: 10mph
Humidity: 41%   Direction: 180°S
Pressure: 30.17"   Gusts: 20mph
Location:  43.43°N, 91.2°W
Report Text: KY51 212035Z AUTO 18009G17KT 10SM CLR M02/M13 A3017 RMK AO1 T10171133
Loading
Personal Weather Stations






























Interactive Weather Map New forecast layout! Learn more

10-Day Weather Forecast

Advertisements
Track Severe Weather on mobile